SILO002 LLHA-LLER
Flight info
| Callsign | SILO002 |
|---|---|
| Flight time | 0h 48m |
| Altitude | 30000 |
| Route | GALIM Q28 ATLIT J15 NAT J10 NURIT |
| Aircraft | C750/M-SBDE3FGHRWXY/S |
Departure
| Time | 2026-04-27 16:55 |
|---|---|
| Airport | Uri Michaeli Haifa International Airport (LLHA) |
Arrival
| Time | 2026-04-27 17:44 |
|---|---|
| Airport | Ramon International Airport (LLER) |
| Time | Latitude | Longitude | Altitude | Speed | Heading |
|---|---|---|---|---|---|
| 2026-04-27 16:37 | 32.81139 | 35.04502 | 27 ft | 0 kts | 339° |
| 2026-04-27 16:50 | 32.81153 | 35.04436 | 27 ft | 17 kts | 253° |
| 2026-04-27 16:51 | 32.81134 | 35.04380 | 27 ft | 0 kts | 250° |
| 2026-04-27 16:52 | 32.81088 | 35.04354 | 28 ft | 19 kts | 173° |
| 2026-04-27 16:53 | 32.80936 | 35.04407 | 26 ft | 23 kts | 160° |
| 2026-04-27 16:53 | 32.80786 | 35.04474 | 23 ft | 23 kts | 159° |
| 2026-04-27 16:53 | 32.80632 | 35.04521 | 22 ft | 19 kts | 161° |
| 2026-04-27 16:53 | 32.80625 | 35.04546 | 22 ft | 1 kts | 354° |
| 2026-04-27 16:54 | 32.80640 | 35.04536 | 24 ft | 0 kts | 342° |
| 2026-04-27 16:54 | 32.80673 | 35.04521 | 24 ft | 23 kts | 340° |
| 2026-04-27 16:55 | 32.81205 | 35.04290 | 31 ft | 130 kts | 340° |
| 2026-04-27 16:55 | 32.82038 | 35.03659 | 428 ft | 158 kts | 311° |
| 2026-04-27 16:55 | 32.82462 | 35.02337 | 908 ft | 188 kts | 285° |
| 2026-04-27 16:55 | 32.82735 | 35.00751 | 1686 ft | 196 kts | 279° |
| 2026-04-27 16:56 | 32.82854 | 34.99099 | 2658 ft | 197 kts | 263° |
| 2026-04-27 16:56 | 32.82587 | 34.97567 | 3060 ft | 197 kts | 253° |
| 2026-04-27 16:56 | 32.81855 | 34.96218 | 2891 ft | 203 kts | 225° |
| 2026-04-27 16:56 | 32.80560 | 34.95383 | 2678 ft | 217 kts | 201° |
| 2026-04-27 16:57 | 32.79101 | 34.94950 | 2690 ft | 215 kts | 196° |
| 2026-04-27 16:57 | 32.77659 | 34.94525 | 2716 ft | 213 kts | 199° |
| 2026-04-27 16:57 | 32.76253 | 34.94002 | 2730 ft | 211 kts | 202° |
| 2026-04-27 16:57 | 32.74861 | 34.93455 | 2739 ft | 210 kts | 201° |
| 2026-04-27 16:58 | 32.73470 | 34.92924 | 2742 ft | 210 kts | 200° |
| 2026-04-27 16:58 | 32.72080 | 34.92400 | 2746 ft | 210 kts | 201° |
| 2026-04-27 16:58 | 32.70560 | 34.91820 | 2984 ft | 247 kts | 200° |
| 2026-04-27 16:58 | 32.68816 | 34.91652 | 3808 ft | 260 kts | 176° |
| 2026-04-27 16:59 | 32.67032 | 34.91958 | 5030 ft | 260 kts | 175° |
| 2026-04-27 16:59 | 32.65217 | 34.92212 | 6069 ft | 264 kts | 176° |
| 2026-04-27 16:59 | 32.63398 | 34.92463 | 7186 ft | 262 kts | 176° |
| 2026-04-27 16:59 | 32.61585 | 34.92733 | 8373 ft | 262 kts | 176° |
| 2026-04-27 17:00 | 32.59163 | 34.93095 | 9953 ft | 263 kts | 176° |
| 2026-04-27 17:00 | 32.56106 | 34.93543 | 11457 ft | 270 kts | 176° |
| 2026-04-27 17:00 | 32.54277 | 34.93816 | 12741 ft | 254 kts | 176° |
| 2026-04-27 17:01 | 32.52617 | 34.94066 | 14372 ft | 227 kts | 176° |
| 2026-04-27 17:01 | 32.51137 | 34.94286 | 15792 ft | 203 kts | 178° |
| 2026-04-27 17:01 | 32.49727 | 34.94487 | 16674 ft | 206 kts | 178° |
| 2026-04-27 17:01 | 32.48359 | 34.94689 | 16971 ft | 192 kts | 178° |
| 2026-04-27 17:02 | 32.47065 | 34.94882 | 16967 ft | 181 kts | 178° |
| 2026-04-27 17:02 | 32.45854 | 34.95059 | 16967 ft | 174 kts | 179° |
| 2026-04-27 17:02 | 32.44666 | 34.95232 | 16975 ft | 171 kts | 179° |
| 2026-04-27 17:02 | 32.43486 | 34.95405 | 16983 ft | 171 kts | 179° |
| 2026-04-27 17:03 | 32.42460 | 34.95550 | 17003 ft | 194 kts | 179° |
| 2026-04-27 17:03 | 32.40985 | 34.95757 | 17023 ft | 232 kts | 178° |
| 2026-04-27 17:03 | 32.39250 | 34.96013 | 17038 ft | 270 kts | 177° |
| 2026-04-27 17:03 | 32.37266 | 34.96310 | 17036 ft | 305 kts | 176° |
| 2026-04-27 17:04 | 32.35054 | 34.96643 | 17035 ft | 335 kts | 175° |
| 2026-04-27 17:04 | 32.32738 | 34.97548 | 16979 ft | 370 kts | 156° |
| 2026-04-27 17:04 | 32.30530 | 34.99312 | 17025 ft | 395 kts | 147° |
| 2026-04-27 17:04 | 32.28277 | 35.01346 | 17021 ft | 417 kts | 146° |
| 2026-04-27 17:05 | 32.25928 | 35.03472 | 17013 ft | 432 kts | 146° |
| 2026-04-27 17:05 | 32.23503 | 35.05575 | 17012 ft | 434 kts | 147° |
| 2026-04-27 17:05 | 32.21878 | 35.06966 | 17009 ft | 436 kts | 147° |
| 2026-04-27 17:05 | 32.19423 | 35.09103 | 17008 ft | 441 kts | 147° |
| 2026-04-27 17:06 | 32.16985 | 35.11264 | 17005 ft | 437 kts | 146° |
| 2026-04-27 17:06 | 32.14539 | 35.13413 | 16995 ft | 437 kts | 147° |
| 2026-04-27 17:06 | 32.12082 | 35.15541 | 16997 ft | 438 kts | 147° |
| 2026-04-27 17:06 | 32.09628 | 35.17674 | 16996 ft | 439 kts | 147° |
| 2026-04-27 17:07 | 32.07170 | 35.19825 | 17000 ft | 439 kts | 147° |
| 2026-04-27 17:07 | 32.04715 | 35.21972 | 16999 ft | 439 kts | 147° |
| 2026-04-27 17:07 | 32.02257 | 35.24109 | 17002 ft | 439 kts | 147° |
| 2026-04-27 17:07 | 31.99792 | 35.26248 | 17000 ft | 440 kts | 147° |
| 2026-04-27 17:08 | 31.97361 | 35.28368 | 17003 ft | 440 kts | 147° |
| 2026-04-27 17:08 | 31.94899 | 35.30517 | 16998 ft | 440 kts | 147° |
| 2026-04-27 17:08 | 31.92436 | 35.32660 | 17001 ft | 440 kts | 147° |
| 2026-04-27 17:08 | 31.89961 | 35.34809 | 16997 ft | 441 kts | 147° |
| 2026-04-27 17:09 | 31.87492 | 35.36952 | 17000 ft | 442 kts | 147° |
| 2026-04-27 17:09 | 31.85017 | 35.39102 | 16999 ft | 441 kts | 147° |
| 2026-04-27 17:09 | 31.82539 | 35.41247 | 17001 ft | 441 kts | 148° |
| 2026-04-27 17:09 | 31.80067 | 35.43379 | 17007 ft | 441 kts | 148° |
| 2026-04-27 17:10 | 31.77592 | 35.45516 | 17000 ft | 441 kts | 147° |
| 2026-04-27 17:10 | 31.75034 | 35.47352 | 16945 ft | 435 kts | 160° |
| 2026-04-27 17:10 | 31.72128 | 35.48079 | 16927 ft | 424 kts | 181° |
| 2026-04-27 17:10 | 31.69222 | 35.47672 | 17004 ft | 421 kts | 193° |
| 2026-04-27 17:11 | 31.66377 | 35.46841 | 17021 ft | 422 kts | 197° |
| 2026-04-27 17:11 | 31.60686 | 35.45154 | 17017 ft | 423 kts | 193° |
| 2026-04-27 17:11 | 31.59702 | 35.44960 | 17016 ft | 424 kts | 191° |
| 2026-04-27 17:12 | 31.54616 | 35.44026 | 17007 ft | 424 kts | 193° |
| 2026-04-27 17:12 | 31.51807 | 35.43330 | 17007 ft | 423 kts | 194° |
| 2026-04-27 17:12 | 31.48917 | 35.42621 | 17007 ft | 424 kts | 193° |
| 2026-04-27 17:13 | 31.46009 | 35.42007 | 17006 ft | 425 kts | 192° |
| 2026-04-27 17:13 | 31.43101 | 35.41404 | 17003 ft | 424 kts | 193° |
| 2026-04-27 17:13 | 31.40201 | 35.40743 | 17001 ft | 424 kts | 193° |
| 2026-04-27 17:13 | 31.37338 | 35.40078 | 17050 ft | 425 kts | 193° |
| 2026-04-27 17:14 | 31.34422 | 35.39436 | 17047 ft | 426 kts | 193° |
| 2026-04-27 17:14 | 31.31485 | 35.38972 | 17042 ft | 427 kts | 187° |
| 2026-04-27 17:14 | 31.28522 | 35.38700 | 17046 ft | 428 kts | 187° |
| 2026-04-27 17:14 | 31.25557 | 35.38382 | 17047 ft | 427 kts | 188° |
| 2026-04-27 17:15 | 31.22595 | 35.38044 | 17048 ft | 428 kts | 188° |
| 2026-04-27 17:15 | 31.19621 | 35.37731 | 17045 ft | 428 kts | 187° |
| 2026-04-27 17:15 | 31.16651 | 35.37435 | 17046 ft | 428 kts | 188° |
| 2026-04-27 17:15 | 31.13680 | 35.37127 | 17047 ft | 428 kts | 188° |
| 2026-04-27 17:16 | 31.10698 | 35.36813 | 17050 ft | 430 kts | 188° |
| 2026-04-27 17:16 | 31.07723 | 35.36506 | 17049 ft | 429 kts | 188° |
| 2026-04-27 17:16 | 31.04748 | 35.36204 | 17045 ft | 429 kts | 188° |
| 2026-04-27 17:16 | 31.01777 | 35.35900 | 17047 ft | 429 kts | 188° |
| 2026-04-27 17:17 | 30.98794 | 35.35591 | 17047 ft | 430 kts | 188° |
| 2026-04-27 17:17 | 30.95825 | 35.35206 | 17020 ft | 428 kts | 192° |
| 2026-04-27 17:17 | 30.92951 | 35.34351 | 17038 ft | 425 kts | 200° |
| 2026-04-27 17:18 | 30.87535 | 35.31735 | 17043 ft | 424 kts | 205° |
| 2026-04-27 17:18 | 30.84810 | 35.30410 | 17051 ft | 425 kts | 205° |
| 2026-04-27 17:18 | 30.82089 | 35.29082 | 17053 ft | 424 kts | 205° |
| 2026-04-27 17:18 | 30.79368 | 35.27731 | 17053 ft | 425 kts | 205° |
| 2026-04-27 17:19 | 30.76643 | 35.26380 | 17053 ft | 425 kts | 205° |
| 2026-04-27 17:19 | 30.73922 | 35.25046 | 17048 ft | 425 kts | 205° |
| 2026-04-27 17:19 | 30.71193 | 35.23710 | 17046 ft | 425 kts | 205° |
| 2026-04-27 17:19 | 30.68471 | 35.22370 | 17021 ft | 420 kts | 205° |
| 2026-04-27 17:20 | 30.65869 | 35.21093 | 15797 ft | 396 kts | 205° |
| 2026-04-27 17:20 | 30.63341 | 35.19850 | 13427 ft | 407 kts | 205° |
| 2026-04-27 17:20 | 30.60755 | 35.18577 | 11721 ft | 398 kts | 204° |
| 2026-04-27 17:20 | 30.58200 | 35.17376 | 10622 ft | 393 kts | 203° |
| 2026-04-27 17:21 | 30.55654 | 35.16268 | 10076 ft | 392 kts | 198° |
| 2026-04-27 17:21 | 30.52959 | 35.15660 | 10055 ft | 395 kts | 191° |
| 2026-04-27 17:21 | 30.50264 | 35.15111 | 10051 ft | 384 kts | 192° |
| 2026-04-27 17:21 | 30.47649 | 35.14589 | 10044 ft | 368 kts | 191° |
| 2026-04-27 17:22 | 30.45270 | 35.14145 | 10021 ft | 326 kts | 191° |
| 2026-04-27 17:22 | 30.43154 | 35.13747 | 10023 ft | 291 kts | 192° |
| 2026-04-27 17:22 | 30.41240 | 35.13372 | 10022 ft | 270 kts | 192° |
| 2026-04-27 17:22 | 30.39381 | 35.13004 | 10032 ft | 275 kts | 192° |
| 2026-04-27 17:23 | 30.37482 | 35.12637 | 10033 ft | 277 kts | 192° |
| 2026-04-27 17:23 | 30.35578 | 35.12274 | 10029 ft | 277 kts | 192° |
| 2026-04-27 17:23 | 30.33674 | 35.11908 | 10034 ft | 278 kts | 192° |
| 2026-04-27 17:23 | 30.31778 | 35.11543 | 9907 ft | 271 kts | 192° |
| 2026-04-27 17:24 | 30.29920 | 35.11197 | 9412 ft | 265 kts | 192° |
| 2026-04-27 17:24 | 30.28190 | 35.10880 | 9354 ft | 236 kts | 192° |
| 2026-04-27 17:24 | 30.26553 | 35.10571 | 8703 ft | 242 kts | 192° |
| 2026-04-27 17:24 | 30.24909 | 35.10257 | 8279 ft | 241 kts | 191° |
| 2026-04-27 17:25 | 30.23262 | 35.09950 | 7829 ft | 240 kts | 191° |
| 2026-04-27 17:25 | 30.21613 | 35.09636 | 7374 ft | 239 kts | 192° |
| 2026-04-27 17:25 | 30.19975 | 35.09289 | 6911 ft | 239 kts | 193° |
| 2026-04-27 17:25 | 30.18335 | 35.08939 | 6454 ft | 240 kts | 192° |
| 2026-04-27 17:26 | 30.16647 | 35.08587 | 6036 ft | 251 kts | 192° |
| 2026-04-27 17:26 | 30.14969 | 35.08245 | 6033 ft | 240 kts | 192° |
| 2026-04-27 17:26 | 30.13330 | 35.07908 | 6044 ft | 239 kts | 192° |
| 2026-04-27 17:26 | 30.11682 | 35.07564 | 6043 ft | 241 kts | 192° |
| 2026-04-27 17:27 | 30.10022 | 35.07220 | 6049 ft | 243 kts | 192° |
| 2026-04-27 17:27 | 30.08371 | 35.06879 | 6046 ft | 244 kts | 192° |
| 2026-04-27 17:27 | 30.06695 | 35.06533 | 6036 ft | 244 kts | 192° |
| 2026-04-27 17:27 | 30.05019 | 35.06199 | 6027 ft | 244 kts | 192° |
| 2026-04-27 17:28 | 30.03341 | 35.05879 | 6036 ft | 245 kts | 192° |
| 2026-04-27 17:28 | 30.01663 | 35.05553 | 6031 ft | 244 kts | 192° |
| 2026-04-27 17:28 | 29.98286 | 35.04891 | 6026 ft | 246 kts | 192° |
| 2026-04-27 17:29 | 29.96595 | 35.04561 | 6016 ft | 245 kts | 192° |
| 2026-04-27 17:29 | 29.94897 | 35.04229 | 6013 ft | 247 kts | 192° |
| 2026-04-27 17:29 | 29.93206 | 35.03900 | 6012 ft | 247 kts | 192° |
| 2026-04-27 17:29 | 29.91516 | 35.03570 | 6020 ft | 247 kts | 192° |
| 2026-04-27 17:30 | 29.89817 | 35.03239 | 6017 ft | 248 kts | 192° |
| 2026-04-27 17:30 | 29.86432 | 35.02586 | 6002 ft | 247 kts | 192° |
| 2026-04-27 17:30 | 29.84743 | 35.02263 | 6009 ft | 247 kts | 192° |
| 2026-04-27 17:31 | 29.83046 | 35.01936 | 6004 ft | 248 kts | 192° |
| 2026-04-27 17:31 | 29.81326 | 35.01792 | 5975 ft | 247 kts | 181° |
| 2026-04-27 17:31 | 29.79673 | 35.01885 | 5986 ft | 228 kts | 180° |
| 2026-04-27 17:31 | 29.78143 | 35.01952 | 5981 ft | 213 kts | 181° |
| 2026-04-27 17:32 | 29.76688 | 35.02001 | 5988 ft | 207 kts | 181° |
| 2026-04-27 17:32 | 29.73984 | 35.01316 | 5995 ft | 197 kts | 211° |
| 2026-04-27 17:32 | 29.72776 | 35.00618 | 5554 ft | 196 kts | 210° |
| 2026-04-27 17:33 | 29.71505 | 34.99910 | 4833 ft | 214 kts | 209° |
| 2026-04-27 17:33 | 29.70154 | 34.99158 | 4492 ft | 208 kts | 209° |
| 2026-04-27 17:33 | 29.68894 | 34.98458 | 4483 ft | 199 kts | 210° |
| 2026-04-27 17:33 | 29.67626 | 34.97742 | 4508 ft | 204 kts | 210° |
| 2026-04-27 17:34 | 29.66358 | 34.97038 | 4530 ft | 203 kts | 210° |
| 2026-04-27 17:34 | 29.65085 | 34.96331 | 4528 ft | 207 kts | 209° |
| 2026-04-27 17:34 | 29.63804 | 34.95620 | 4532 ft | 203 kts | 210° |
| 2026-04-27 17:34 | 29.62517 | 34.94904 | 4525 ft | 206 kts | 210° |
| 2026-04-27 17:35 | 29.61227 | 34.94186 | 4532 ft | 206 kts | 210° |
| 2026-04-27 17:35 | 29.59936 | 34.93469 | 4531 ft | 213 kts | 210° |
| 2026-04-27 17:35 | 29.58493 | 34.92658 | 4534 ft | 242 kts | 210° |
| 2026-04-27 17:35 | 29.57008 | 34.91839 | 4313 ft | 234 kts | 209° |
| 2026-04-27 17:36 | 29.55453 | 34.90977 | 3533 ft | 268 kts | 208° |
| 2026-04-27 17:36 | 29.53749 | 34.90030 | 3337 ft | 268 kts | 209° |
| 2026-04-27 17:36 | 29.52071 | 34.89105 | 3332 ft | 268 kts | 208° |
| 2026-04-27 17:36 | 29.50381 | 34.88174 | 3351 ft | 267 kts | 207° |
| 2026-04-27 17:37 | 29.48551 | 34.88217 | 2272 ft | 294 kts | 132° |
| 2026-04-27 17:37 | 29.48119 | 34.90036 | 3385 ft | 219 kts | 82° |
| 2026-04-27 17:37 | 29.48726 | 34.91686 | 3274 ft | 242 kts | 47° |
| 2026-04-27 17:37 | 29.49890 | 34.93102 | 3203 ft | 241 kts | 42° |
| 2026-04-27 17:38 | 29.51083 | 34.94390 | 3062 ft | 229 kts | 36° |
| 2026-04-27 17:38 | 29.52313 | 34.95411 | 3011 ft | 208 kts | 28° |
| 2026-04-27 17:38 | 29.53563 | 34.96081 | 2940 ft | 189 kts | 14° |
| 2026-04-27 17:38 | 29.54749 | 34.96430 | 2437 ft | 180 kts | 9° |
| 2026-04-27 17:39 | 29.56039 | 34.96749 | 2107 ft | 187 kts | 10° |
| 2026-04-27 17:39 | 29.57272 | 34.97091 | 2122 ft | 178 kts | 11° |
| 2026-04-27 17:39 | 29.58431 | 34.97418 | 2119 ft | 166 kts | 9° |
| 2026-04-27 17:39 | 29.59547 | 34.97722 | 2116 ft | 167 kts | 12° |
| 2026-04-27 17:40 | 29.60717 | 34.98050 | 2124 ft | 173 kts | 12° |
| 2026-04-27 17:40 | 29.61844 | 34.98368 | 2105 ft | 157 kts | 12° |
| 2026-04-27 17:40 | 29.62856 | 34.98654 | 1896 ft | 140 kts | 11° |
| 2026-04-27 17:40 | 29.63711 | 34.98891 | 1722 ft | 118 kts | 8° |
| 2026-04-27 17:41 | 29.64464 | 34.99101 | 1574 ft | 106 kts | 8° |
| 2026-04-27 17:41 | 29.65167 | 34.99297 | 1442 ft | 101 kts | 10° |
| 2026-04-27 17:41 | 29.65869 | 34.99492 | 1309 ft | 107 kts | 11° |
| 2026-04-27 17:41 | 29.66594 | 34.99696 | 1162 ft | 106 kts | 9° |
| 2026-04-27 17:42 | 29.67284 | 34.99890 | 1015 ft | 98 kts | 6° |
| 2026-04-27 17:42 | 29.67939 | 35.00071 | 928 ft | 94 kts | 6° |
| 2026-04-27 17:42 | 29.68607 | 35.00274 | 793 ft | 103 kts | 10° |
| 2026-04-27 17:42 | 29.69311 | 35.00492 | 651 ft | 105 kts | 8° |
| 2026-04-27 17:43 | 29.70022 | 35.00677 | 529 ft | 105 kts | 9° |
| 2026-04-27 17:43 | 29.70726 | 35.00866 | 410 ft | 102 kts | 7° |
| 2026-04-27 17:43 | 29.71413 | 35.01048 | 293 ft | 96 kts | 8° |
| 2026-04-27 17:43 | 29.71977 | 35.01194 | 299 ft | 72 kts | 13° |
| 2026-04-27 17:44 | 29.72324 | 35.01296 | 298 ft | 27 kts | 11° |
| 2026-04-27 17:44 | 29.72399 | 35.01190 | 297 ft | 19 kts | 280° |
| 2026-04-27 17:44 | 29.72395 | 35.01045 | 296 ft | 22 kts | 275° |
| 2026-04-27 17:44 | 29.72451 | 35.00879 | 293 ft | 17 kts | 350° |
| 2026-04-27 17:45 | 29.72516 | 35.00820 | 295 ft | 7 kts | 284° |
| 2026-04-27 17:45 | 29.72524 | 35.00790 | 295 ft | 0 kts | 284° |